Time;durP1;ratioP1;P1;durP2;ratioP2;P2;SDS_P1;SDS_P2;PMS_P1;PMS_P2;Temp;Humidity;BMP_temperature;BMP_pressure;BME280_temperature;BME280_humidity;BME280_pressure;Samples;Min_cycle;Max_cycle;Signal;HPM_P1;HPM_P2
2022/04/18 00:01:05;;;;;;;;;0.67;0.67;;;;;17.75;25.22;101282.50;5175533;27;45318;-67
2022/04/18 00:03:30;;;;;;;;;3.33;2.00;;;;;17.73;25.23;101291.47;5177685;27;45670;-65
2022/04/18 00:05:56;;;;;;;;;1.00;1.00;;;;;17.55;25.15;101279.63;5177367;27;44979;-66
2022/04/18 00:08:21;;;;;;;;;1.00;1.00;;;;;17.51;25.50;101277.84;5178031;27;45142;-66
2022/04/18 00:10:46;;;;;;;;;2.00;2.00;;;;;17.41;25.45;101274.16;5176478;27;45279;-65
2022/04/18 00:13:12;;;;;;;;;1.67;1.67;;;;;17.11;26.11;101242.47;5176996;27;45052;-64
2022/04/18 00:15:37;;;;;;;;;1.00;1.00;;;;;17.29;26.16;101261.47;5177041;27;45086;-66
2022/04/18 00:18:02;;;;;;;;;1.00;1.00;;;;;17.13;26.02;101243.38;5177438;27;45103;-66
2022/04/18 00:20:29;;;;;;;;;2.00;2.00;;;;;17.07;25.73;101236.09;5177559;27;45071;-66
2022/04/18 00:22:54;;;;;;;;;3.00;2.00;;;;;17.29;25.85;101268.66;5156582;27;48883;-66
2022/04/18 00:25:20;;;;;;;;;1.00;1.00;;;;;17.11;25.76;101240.66;5171631;27;45133;-66
2022/04/18 00:27:45;;;;;;;;;2.33;2.33;;;;;17.15;26.19;101238.88;5177479;27;45502;-66
2022/04/18 00:30:10;;;;;;;;;1.00;1.00;;;;;17.27;26.00;101249.78;5176765;27;44976;-66
2022/04/18 00:32:36;;;;;;;;;4.00;3.00;;;;;17.29;25.88;101245.28;5156319;27;45957;-66
2022/04/18 00:35:04;;;;;;;;;2.00;2.00;;;;;17.27;25.67;101238.03;5176882;27;45152;-66
2022/04/18 00:37:29;;;;;;;;;2.25;2.25;;;;;17.31;25.58;101237.19;5176656;27;45092;-66
2022/04/18 00:39:55;;;;;;;;;1.67;1.67;;;;;17.35;25.54;101252.50;5174454;27;45551;-66
2022/04/18 00:42:20;;;;;;;;;2.67;1.67;;;;;17.31;25.89;101251.59;5175666;27;51012;-66
2022/04/18 00:44:45;;;;;;;;;1.50;1.50;;;;;17.23;25.27;101242.53;5173378;27;45023;-65
2022/04/18 00:47:11;;;;;;;;;2.50;2.50;;;;;17.07;25.51;101240.59;5169091;27;45675;-65
2022/04/18 00:49:36;;;;;;;;;4.00;3.75;;;;;17.06;25.66;101244.19;5175865;27;45104;-66
2022/04/18 00:52:04;;;;;;;;;1.67;1.67;;;;;17.05;25.40;101235.19;5175200;27;49613;-66
2022/04/18 00:54:31;;;;;;;;;1.33;1.33;;;;;17.06;25.63;101233.38;5170355;27;45068;-66
2022/04/18 00:56:57;;;;;;;;;0.67;0.67;;;;;17.07;25.73;101227.13;5168798;27;45301;-65
2022/04/18 00:59:23;;;;;;;;;4.00;3.00;;;;;17.04;25.30;101229.78;5173617;27;45564;-66
2022/04/18 01:01:49;;;;;;;;;2.75;2.00;;;;;16.94;25.63;101235.13;5173548;27;45039;-66
2022/04/18 01:04:14;;;;;;;;;1.33;1.33;;;;;16.97;25.74;101241.44;5170851;27;45385;-66
2022/04/18 01:06:40;;;;;;;;;1.00;1.00;;;;;16.95;26.29;101231.53;5175855;27;45129;-65
2022/04/18 01:09:06;;;;;;;;;1.67;1.67;;;;;16.89;25.54;101236.88;5176607;27;45037;-65
2022/04/18 01:11:32;;;;;;;;;1.67;1.67;;;;;16.79;25.74;101224.16;5177210;27;45574;-65
2022/04/18 01:14:04;;;;;;;;;1.33;1.33;;;;;16.91;25.95;101235.09;5175991;27;45672;-65
2022/04/18 01:16:29;;;;;;;;;1.67;1.67;;;;;16.92;26.05;101230.59;5175003;27;45113;-65
2022/04/18 01:18:57;;;;;;;;;2.33;0.67;;;;;16.91;25.73;101223.38;5174495;27;45097;-65
2022/04/18 01:21:22;;;;;;;;;0.67;0.67;;;;;16.98;25.58;101227.03;5174097;27;45372;-65
2022/04/18 01:23:48;;;;;;;;;0.67;0.67;;;;;16.79;26.15;101207.06;5174372;27;45156;-65
2022/04/18 01:29:01;;;;;;;;;1.67;1.00;;;;;16.83;25.80;101225.06;5161367;27;45379;-65
2022/04/18 01:31:32;;;;;;;;;0.00;0.00;;;;;16.84;25.96;101227.78;5176089;27;45631;-65
2022/04/18 01:33:58;;;;;;;;;1.33;1.33;;;;;16.86;26.37;101217.97;5155673;27;45052;-65
2022/04/18 01:36:25;;;;;;;;;3.00;3.00;;;;;16.86;26.12;101223.38;5175909;27;45065;-65
2022/04/18 01:38:51;;;;;;;;;3.50;3.00;;;;;16.83;26.08;101226.00;5176760;27;45030;-65
2022/04/18 01:41:17;;;;;;;;;3.75;2.50;;;;;16.64;26.24;101192.56;5174372;27;45237;-66
2022/04/18 01:43:43;;;;;;;;;0.67;0.67;;;;;16.80;26.44;101215.19;5171893;27;45021;-64
2022/04/18 01:46:08;;;;;;;;;1.75;1.75;;;;;16.68;26.35;101229.47;5175485;27;45541;-65
2022/04/18 01:48:34;;;;;;;;;2.67;2.67;;;;;16.57;26.48;101218.56;5175313;27;45214;-64
2022/04/18 01:50:59;;;;;;;;;3.00;1.00;;;;;16.41;26.83;101195.03;5182073;27;45184;-66
2022/04/18 01:53:25;;;;;;;;;1.67;1.67;;;;;16.47;26.98;101200.50;5175754;27;45501;-66
2022/04/18 01:55:51;;;;;;;;;1.25;1.25;;;;;16.51;26.98;101213.13;5171277;27;46236;-65
2022/04/18 01:58:16;;;;;;;;;2.75;2.50;;;;;16.57;26.91;101214.97;5175070;27;45736;-66
2022/04/18 02:00:42;;;;;;;;;2.00;0.67;;;;;16.56;26.80;101210.47;5175677;27;45372;-66
2022/04/18 02:03:07;;;;;;;;;3.50;1.75;;;;;16.36;26.98;101167.13;5155973;27;45112;-66
2022/04/18 02:05:33;;;;;;;;;2.75;2.00;;;;;16.54;26.51;101198.75;5174154;27;45229;-65
2022/04/18 02:07:59;;;;;;;;;1.67;1.67;;;;;16.49;26.58;101196.03;5173068;27;45280;-66
2022/04/18 02:10:24;;;;;;;;;2.00;2.00;;;;;16.53;26.89;101200.56;5173002;27;45109;-66
2022/04/18 02:12:50;;;;;;;;;1.75;1.75;;;;;16.51;26.69;101193.34;5170392;27;44994;-66
2022/04/18 02:15:15;;;;;;;;;2.00;2.00;;;;;16.38;27.06;101178.81;5174417;27;45627;-67
2022/04/18 02:17:41;;;;;;;;;2.67;2.67;;;;;16.39;26.97;101177.94;5171197;27;44892;-66
2022/04/18 02:20:07;;;;;;;;;1.33;1.33;;;;;16.49;27.08;101196.03;5174185;27;45967;-65
2022/04/18 02:22:33;;;;;;;;;1.00;1.00;;;;;16.40;27.18;101186.06;5174431;27;45223;-64
2022/04/18 02:24:59;;;;;;;;;1.00;1.00;;;;;16.31;27.14;101168.88;5174332;27;46077;-66
2022/04/18 02:27:24;;;;;;;;;1.75;1.75;;;;;16.39;27.05;101180.66;5171260;27;45271;-64
2022/04/18 02:29:50;;;;;;;;;2.00;2.00;;;;;16.40;26.97;101183.38;5162104;27;45729;-67
2022/04/18 02:34:59;;;;;;;;;1.00;1.00;;;;;16.42;26.88;101183.38;5174555;27;45032;-66
2022/04/18 02:37:24;;;;;;;;;1.00;1.00;;;;;16.44;26.99;101188.78;5173562;27;45082;-66
2022/04/18 02:39:50;;;;;;;;;3.75;0.75;;;;;16.41;27.34;101186.94;5168004;27;45351;-66
2022/04/18 02:42:18;;;;;;;;;2.75;2.75;;;;;16.38;27.38;101171.66;5174078;27;45204;-66
2022/04/18 02:44:45;;;;;;;;;2.00;2.00;;;;;16.39;27.07;101169.88;5174968;27;45027;-66
2022/04/18 02:47:11;;;;;;;;;1.75;1.75;;;;;16.35;26.90;101179.72;5174480;27;45112;-66
2022/04/18 02:49:37;;;;;;;;;1.50;1.50;;;;;16.35;26.90;101173.41;5174868;27;45172;-64
2022/04/18 02:52:03;;;;;;;;;1.75;1.75;;;;;16.33;27.21;101175.19;5174228;27;45120;-64
2022/04/18 02:54:29;;;;;;;;;2.75;1.25;;;;;16.32;27.52;101179.69;5176451;27;45080;-64
2022/04/18 02:56:54;;;;;;;;;3.00;1.50;;;;;16.30;27.03;101183.25;5167661;27;45205;-65
2022/04/18 02:59:19;;;;;;;;;0.50;0.50;;;;;16.27;27.39;101169.72;5177890;27;45653;-65
2022/04/18 03:01:45;;;;;;;;;1.75;1.75;;;;;16.12;27.41;101151.63;5177617;27;45015;-65
2022/04/18 03:04:10;;;;;;;;;1.75;1.50;;;;;16.26;27.38;101181.44;5160421;27;45303;-65
2022/04/18 03:06:35;;;;;;;;;6.50;2.00;;;;;16.12;27.96;101163.31;5176717;27;45208;-65
2022/04/18 03:09:00;;;;;;;;;2.25;2.25;;;;;15.94;27.36;101161.34;5178453;27;45021;-66
2022/04/18 03:11:26;;;;;;;;;1.50;0.25;;;;;15.81;27.65;101143.22;5176572;27;44931;-66
2022/04/18 03:13:51;;;;;;;;;1.75;1.75;;;;;15.98;27.93;101182.03;5177087;27;45096;-66
2022/04/18 03:16:18;;;;;;;;;1.00;1.00;;;;;15.83;27.81;101150.41;5177119;27;45075;-64
2022/04/18 03:18:44;;;;;;;;;2.25;2.25;;;;;15.97;28.38;101176.59;5177793;27;45229;-66
2022/04/18 03:21:10;;;;;;;;;2.00;2.00;;;;;15.97;28.07;101177.53;5176850;27;45130;-66
2022/04/18 03:23:35;;;;;;;;;2.00;2.00;;;;;15.98;27.71;101175.72;5177595;27;46103;-66
2022/04/18 03:26:01;;;;;;;;;3.50;3.50;;;;;15.95;27.66;101173.91;5176601;27;45770;-65
2022/04/18 03:28:26;;;;;;;;;4.50;4.00;;;;;15.93;28.57;101169.41;5175483;27;45856;-64
2022/04/18 03:30:52;;;;;;;;;4.50;3.00;;;;;15.64;28.37;101129.50;5176223;27;45355;-66
2022/04/18 03:33:18;;;;;;;;;2.75;2.75;;;;;15.91;28.36;101172.06;5176548;27;45011;-66
2022/04/18 03:39:50;;;;;;;;;2.00;2.00;;;;;15.90;28.55;101175.63;5175317;27;45140;-64
2022/04/18 03:41:14;;;;;;;;;2.00;2.00;;;;;15.92;28.74;101175.66;5159417;27;44974;-65
2022/04/18 03:43:39;;;;;;;;;2.25;2.00;;;;;15.93;28.90;101172.97;5176773;27;45069;-65
2022/04/18 03:46:05;;;;;;;;;3.00;3.00;;;;;15.91;28.88;101173.88;5175618;27;45162;-66
2022/04/18 03:48:30;;;;;;;;;4.25;2.50;;;;;15.73;28.53;101145.78;5177778;27;45791;-65
2022/04/18 03:50:55;;;;;;;;;4.25;2.50;;;;;15.83;28.58;101163.88;5177228;27;49549;-66
2022/04/18 03:53:21;;;;;;;;;3.00;3.00;;;;;15.81;28.50;101157.59;5176136;27;45563;-66
2022/04/18 03:55:46;;;;;;;;;2.50;2.50;;;;;15.81;28.85;101165.66;5177556;27;45264;-65
2022/04/18 03:58:11;;;;;;;;;3.25;1.50;;;;;15.65;29.03;101139.41;5175247;27;45641;-65
2022/04/18 04:00:39;;;;;;;;;3.00;3.00;;;;;15.74;29.22;101166.47;5166981;27;45240;-66
2022/04/18 04:03:04;;;;;;;;;3.50;3.50;;;;;15.72;29.54;101162.81;5175345;27;45053;-66
2022/04/18 04:05:29;;;;;;;;;2.00;2.00;;;;;15.70;29.59;101161.00;5175271;27;45279;-66
2022/04/18 04:07:55;;;;;;;;;5.00;3.00;;;;;15.69;29.58;101164.59;5154628;27;46438;-66
2022/04/18 04:10:20;;;;;;;;;5.75;4.75;;;;;15.64;29.91;101160.06;5176086;27;50388;-66
2022/04/18 04:12:45;;;;;;;;;6.50;3.50;;;;;15.48;29.99;101134.72;5174610;27;45221;-65
2022/04/18 04:15:10;;;;;;;;;6.00;4.25;;;;;15.62;30.19;101159.16;5175899;27;45068;-64
2022/04/18 04:17:37;;;;;;;;;6.00;6.00;;;;;15.60;30.48;101149.22;5173865;27;45149;-65
2022/04/18 04:20:02;;;;;;;;;5.00;4.25;;;;;15.32;31.35;101119.25;5155838;27;45141;-64
2022/04/18 04:22:27;;;;;;;;;3.50;3.50;;;;;15.52;30.95;101154.50;5176251;27;45057;-66
2022/04/18 04:24:53;;;;;;;;;5.50;5.25;;;;;15.51;30.99;101157.19;5177361;27;44986;-65
2022/04/18 04:27:18;;;;;;;;;6.00;4.25;;;;;15.50;31.33;101158.09;5171793;27;45192;-65
2022/04/18 04:29:44;;;;;;;;;3.50;3.50;;;;;15.48;31.22;101158.06;5165784;27;50171;-65
2022/04/18 04:32:09;;;;;;;;;7.25;5.75;;;;;15.45;31.27;101158.91;5175935;27;45128;-66
2022/04/18 04:34:34;;;;;;;;;4.25;4.25;;;;;15.37;31.45;101152.53;5176350;27;45134;-64
2022/04/18 04:37:00;;;;;;;;;8.25;6.00;;;;;15.30;31.55;101161.41;5167604;27;45543;-65
2022/04/18 04:39:25;;;;;;;;;6.00;4.75;;;;;15.24;31.42;101159.50;5167735;27;45300;-64
2022/04/18 04:41:50;;;;;;;;;3.75;3.75;;;;;15.22;32.07;101165.78;5174462;27;45164;-66
2022/04/18 04:44:16;;;;;;;;;5.00;5.00;;;;;15.09;31.70;101145.84;5172852;27;45162;-64
2022/04/18 04:46:43;;;;;;;;;6.75;4.75;;;;;15.11;31.98;101149.47;5174689;27;46348;-64
2022/04/18 04:49:09;;;;;;;;;4.25;4.25;;;;;15.24;31.65;101175.66;5174434;27;45188;-65
2022/04/18 04:51:34;;;;;;;;;4.75;4.75;;;;;15.26;31.63;101164.94;5161280;27;45337;-65
2022/04/18 04:54:00;;;;;;;;;5.00;5.00;;;;;15.25;31.84;101172.09;5174521;27;44869;-65
2022/04/18 04:56:25;;;;;;;;;3.00;3.00;;;;;15.23;31.72;101171.19;5174952;27;45514;-64
2022/04/18 04:58:53;;;;;;;;;4.25;4.25;;;;;15.15;31.93;101154.03;5168620;27;45155;-65
2022/04/18 05:01:18;;;;;;;;;6.25;5.75;;;;;15.02;31.92;101143.97;5170290;27;45376;-66
2022/04/18 05:03:43;;;;;;;;;6.00;6.00;;;;;15.13;31.97;101157.56;5176716;27;45131;-65
2022/04/18 05:06:10;;;;;;;;;6.50;5.75;;;;;15.12;32.17;101153.97;5174906;27;49961;-65
2022/04/18 05:08:36;;;;;;;;;5.25;3.00;;;;;15.11;32.45;101163.84;5157680;27;45121;-66
2022/04/18 05:11:02;;;;;;;;;6.00;5.00;;;;;15.12;32.35;101164.75;5166858;27;45295;-64
2022/04/18 05:13:27;;;;;;;;;4.00;4.00;;;;;15.13;32.43;101169.25;5176717;27;45214;-66
2022/04/18 05:15:52;;;;;;;;;6.00;3.25;;;;;14.95;32.16;101137.59;5173232;27;45073;-64
2022/04/18 05:18:18;;;;;;;;;4.25;4.25;;;;;15.07;32.39;101167.38;5171078;27;45283;-64
2022/04/18 05:20:46;;;;;;;;;7.75;4.25;;;;;15.06;31.99;101161.97;5175354;27;45009;-65
2022/04/18 05:23:15;;;;;;;;;5.00;5.00;;;;;15.02;32.83;101154.72;5176868;27;44930;-66
2022/04/18 05:25:41;;;;;;;;;4.75;4.75;;;;;15.07;32.53;101174.53;5176059;27;46038;-66
2022/04/18 05:28:06;;;;;;;;;6.75;6.00;;;;;14.97;32.28;101160.03;5170807;27;45542;-65
2022/04/18 05:30:31;;;;;;;;;5.50;5.00;;;;;14.97;32.65;101170.81;5170297;27;45434;-64
2022/04/18 05:32:57;;;;;;;;;7.50;6.50;;;;;15.03;32.82;101178.06;5166569;27;45469;-65
2022/04/18 05:35:22;;;;;;;;;8.00;6.75;;;;;15.03;32.72;101183.44;5174822;27;46072;-66
2022/04/18 05:37:48;;;;;;;;;5.75;5.75;;;;;15.02;33.03;101182.53;5176412;27;45152;-66
2022/04/18 05:40:13;;;;;;;;;7.25;5.50;;;;;14.95;32.95;101174.34;5175594;27;45243;-66
2022/04/18 05:42:39;;;;;;;;;8.75;7.25;;;;;14.88;32.80;101173.34;5173265;27;45144;-65
2022/04/18 05:45:07;;;;;;;;;8.00;8.00;;;;;14.93;33.28;101191.38;5170534;27;45172;-66
2022/04/18 05:47:33;;;;;;;;;6.50;6.50;;;;;14.90;33.09;101191.34;5173159;27;45394;-66
2022/04/18 05:49:58;;;;;;;;;9.25;7.25;;;;;14.89;33.08;101183.22;5173595;27;45373;-64
2022/04/18 05:52:23;;;;;;;;;9.00;7.00;;;;;14.91;33.15;101190.47;5172768;27;45319;-65
2022/04/18 05:54:49;;;;;;;;;8.00;6.25;;;;;14.99;32.91;101195.03;5169996;27;45381;-67
2022/04/18 05:57:14;;;;;;;;;5.25;5.25;;;;;14.84;32.90;101167.00;5169722;27;45243;-65
2022/04/18 05:59:39;;;;;;;;;6.00;6.00;;;;;15.04;32.62;101201.41;5176033;27;45020;-66
2022/04/18 06:02:05;;;;;;;;;7.25;5.50;;;;;15.04;32.40;101196.91;5172980;27;45013;-65
2022/04/18 06:04:30;;;;;;;;;5.50;5.50;;;;;15.02;32.20;101195.09;5170977;27;46128;-64
2022/04/18 06:06:55;;;;;;;;;7.75;6.00;;;;;15.07;32.43;101204.16;5177695;27;44920;-65
2022/04/18 06:09:21;;;;;;;;;4.50;4.50;;;;;14.98;31.93;101190.53;5173383;27;45085;-64
2022/04/18 06:11:46;;;;;;;;;8.75;8.75;;;;;15.10;31.92;101206.88;5171398;27;45258;-65
2022/04/18 06:14:11;;;;;;;;;7.00;6.25;;;;;14.73;31.79;101144.41;5169093;27;45455;-66
2022/04/18 06:16:37;;;;;;;;;7.00;4.50;;;;;15.09;31.64;101205.97;5170320;27;45080;-66
2022/04/18 06:19:02;;;;;;;;;5.75;5.75;;;;;15.11;31.87;101206.91;5175089;27;45019;-66
2022/04/18 06:21:27;;;;;;;;;8.50;7.00;;;;;15.06;31.67;101191.56;5175563;27;45100;-66
2022/04/18 06:23:53;;;;;;;;;5.75;5.75;;;;;15.19;31.61;101214.19;5170210;27;45207;-65
2022/04/18 06:26:18;;;;;;;;;6.50;5.50;;;;;15.26;31.91;101213.38;5166396;27;45372;-64
2022/04/18 06:28:43;;;;;;;;;4.00;4.00;;;;;15.06;31.46;101192.50;5165007;27;45505;-63
2022/04/18 06:31:09;;;;;;;;;4.25;4.25;;;;;14.97;30.33;101186.06;5164813;27;45286;-63
2022/04/18 06:33:34;;;;;;;;;3.75;3.75;;;;;15.00;29.93;101197.75;5174820;27;45476;-66
2022/04/18 06:36:01;;;;;;;;;3.50;3.50;;;;;14.95;30.11;101187.78;5178160;27;45148;-65
2022/04/18 06:38:28;;;;;;;;;4.50;4.50;;;;;14.95;29.86;101191.41;5177205;27;45143;-64
2022/04/18 06:40:54;;;;;;;;;5.75;4.50;;;;;15.02;30.46;101208.56;5179513;27;45074;-64
2022/04/18 06:43:20;;;;;;;;;6.00;5.00;;;;;14.93;30.20;101211.97;5177462;27;45660;-64
2022/04/18 06:45:45;;;;;;;;;3.00;3.00;;;;;14.90;30.01;101206.59;5179205;27;45201;-66
2022/04/18 06:48:11;;;;;;;;;4.25;4.25;;;;;14.91;30.12;101212.00;5177631;27;45030;-65
2022/04/18 06:50:36;;;;;;;;;5.00;4.00;;;;;14.98;30.35;101212.06;5178752;27;45565;-65
2022/04/18 06:53:01;;;;;;;;;5.25;5.25;;;;;14.80;30.08;101194.75;5141109;27;45855;-65
2022/04/18 06:55:27;;;;;;;;;5.50;4.25;;;;;14.85;30.46;101205.56;5173297;27;45104;-65
2022/04/18 06:57:52;;;;;;;;;5.00;5.00;;;;;14.83;30.53;101212.72;5178462;27;45262;-66
2022/04/18 07:00:17;;;;;;;;;6.00;5.00;;;;;14.79;30.73;101206.38;5176709;27;45129;-67
2022/04/18 07:02:46;;;;;;;;;5.50;5.50;;;;;14.81;30.72;101211.78;5175154;27;45725;-66
2022/04/18 07:05:12;;;;;;;;;4.00;4.00;;;;;14.78;30.18;101191.13;5172510;27;45641;-63
2022/04/18 07:07:38;;;;;;;;;7.25;6.00;;;;;15.02;30.15;101211.25;5173413;27;45117;-64
2022/04/18 07:10:04;;;;;;;;;4.00;4.00;;;;;15.11;30.12;101198.84;5173458;27;45513;-64
2022/04/18 07:12:29;;;;;;;;;5.25;5.25;;;;;15.08;30.50;101204.16;5172764;27;45671;-65
2022/04/18 07:14:58;;;;;;;;;4.00;4.00;;;;;15.09;30.26;101203.25;5170498;27;45347;-66
2022/04/18 07:17:24;;;;;;;;;7.50;6.75;;;;;15.23;30.04;101210.66;5168752;27;45214;-66
2022/04/18 07:19:49;;;;;;;;;5.25;5.25;;;;;15.30;29.81;101210.75;5161921;27;45383;-66
2022/04/18 07:22:15;;;;;;;;;3.00;3.00;;;;;15.26;29.74;101213.38;5172555;27;46119;-65
2022/04/18 07:24:40;;;;;;;;;6.00;4.50;;;;;15.17;29.86;101207.88;5166667;27;45644;-65
2022/04/18 07:27:05;;;;;;;;;5.00;5.00;;;;;15.14;30.03;101202.44;5168322;27;45467;-67
2022/04/18 07:29:30;;;;;;;;;6.50;5.50;;;;;15.22;30.09;101208.84;5163663;27;45489;-65
2022/04/18 07:31:56;;;;;;;;;6.00;4.00;;;;;15.36;30.12;101206.34;5169984;27;45695;-65
2022/04/18 07:34:21;;;;;;;;;8.50;5.50;;;;;15.46;29.79;101211.88;5168539;27;45230;-66
2022/04/18 07:36:47;;;;;;;;;6.00;3.00;;;;;15.10;29.74;101129.75;5168026;27;45349;-65
2022/04/18 07:39:13;;;;;;;;;4.75;4.75;;;;;15.58;29.61;101199.47;5178522;27;45025;-66
2022/04/18 07:41:38;;;;;;;;;6.00;5.25;;;;;15.42;29.96;101184.91;5166075;27;50289;-65
2022/04/18 07:44:04;;;;;;;;;5.75;5.75;;;;;15.54;29.83;101209.31;5167972;27;45293;-65
2022/04/18 07:46:30;;;;;;;;;7.00;5.50;;;;;15.46;29.95;101211.00;5168535;27;46133;-65
2022/04/18 07:48:56;;;;;;;;;6.50;6.25;;;;;15.56;29.89;101209.31;5162820;27;45641;-65
2022/04/18 07:54:20;;;;;;;;;6.25;5.00;;;;;15.55;29.83;101188.66;5129260;27;45490;-67
2022/04/18 07:56:46;;;;;;;;;10.75;7.00;;;;;15.83;30.06;101211.50;5162515;27;45312;-65
2022/04/18 07:59:12;;;;;;;;;4.00;4.00;;;;;15.84;29.51;101189.06;5170750;27;45657;-65
2022/04/18 08:01:37;;;;;;;;;9.25;9.00;;;;;16.04;29.18;101213.53;5158910;27;46426;-66
2022/04/18 08:04:04;;;;;;;;;7.50;5.00;;;;;15.97;29.28;101184.69;5145020;27;45346;-66
2022/04/18 08:06:30;;;;;;;;;8.75;3.25;;;;;16.23;28.93;101206.53;5145342;27;45312;-67
2022/04/18 08:08:57;;;;;;;;;10.50;8.50;;;;;16.41;29.25;101205.84;5157889;27;45465;-67
2022/04/18 08:11:22;;;;;;;;;8.50;6.00;;;;;15.97;28.80;101114.63;5167272;27;47737;-66
2022/04/18 08:13:49;;;;;;;;;7.50;7.50;;;;;16.52;28.60;101214.94;5173818;27;45078;-67
2022/04/18 08:16:15;;;;;;;;;7.00;7.00;;;;;16.48;28.39;101207.72;5172490;27;44933;-66
2022/04/18 08:18:44;;;;;;;;;10.75;8.50;;;;;16.47;28.61;101207.69;5175085;27;45435;-66
2022/04/18 08:21:15;;;;;;;;;7.25;7.25;;;;;16.51;28.82;101202.31;5174664;27;46836;-66
2022/04/18 08:23:41;;;;;;;;;9.25;7.75;;;;;16.62;29.01;101201.53;5170678;27;45219;-66
2022/04/18 08:26:07;;;;;;;;;7.50;7.50;;;;;16.69;28.42;101204.28;5171757;27;45082;-65
2022/04/18 08:28:32;;;;;;;;;7.25;7.00;;;;;16.75;28.37;101201.66;5174675;27;45224;-66
2022/04/18 08:30:58;;;;;;;;;9.50;7.25;;;;;16.73;28.65;101187.25;5173394;27;45173;-66
2022/04/18 08:33:25;;;;;;;;;8.75;7.00;;;;;16.95;28.21;101187.44;5166594;27;45477;-66
2022/04/18 08:35:50;;;;;;;;;16.00;12.00;;;;;17.19;28.10;101207.38;5167567;27;45421;-66
2022/04/18 08:38:16;;;;;;;;;14.75;13.00;;;;;17.30;28.59;101197.56;5169749;27;45334;-65
2022/04/18 08:40:43;;;;;;;;;8.25;8.25;;;;;17.45;28.40;101194.03;5168626;27;49411;-65
2022/04/18 08:43:08;;;;;;;;;7.75;7.75;;;;;17.61;28.49;101189.63;5172333;27;45894;-67
2022/04/18 08:45:37;;;;;;;;;3.00;3.00;;;;;17.81;28.07;101197.81;5171127;27;45232;-65
2022/04/18 08:53:32;;;;;;;;;10.75;10.00;;;;;18.15;28.03;101193.44;5168582;27;45289;-63
2022/04/18 08:55:59;;;;;;;;;11.75;11.75;;;;;18.19;27.64;101195.25;5162992;27;45300;-64
2022/04/18 08:58:28;;;;;;;;;11.50;10.50;;;;;18.29;27.83;101190.75;5153383;27;45591;-64
2022/04/18 09:00:56;;;;;;;;;11.50;11.00;;;;;18.38;27.55;101196.19;5161636;27;45351;-64
2022/04/18 09:03:22;;;;;;;;;10.00;10.00;;;;;18.45;27.09;101185.38;5169689;27;45204;-65
2022/04/18 09:05:48;;;;;;;;;8.00;8.00;;;;;18.43;27.04;101182.69;5171575;27;45347;-66
2022/04/18 09:08:13;;;;;;;;;9.50;8.50;;;;;18.57;26.90;101194.38;5169558;27;45189;-65
2022/04/18 09:10:41;;;;;;;;;9.25;8.50;;;;;18.66;27.03;101198.94;5151113;27;46410;-64
2022/04/18 09:13:12;;;;;;;;;6.75;6.00;;;;;18.63;26.78;101192.59;5173750;27;45113;-65
2022/04/18 09:15:42;;;;;;;;;6.75;6.75;;;;;18.68;26.49;101185.41;5168052;27;45333;-64
2022/04/18 09:18:11;;;;;;;;;10.00;8.00;;;;;18.71;26.31;101180.88;5170221;27;45647;-65
2022/04/18 09:20:52;;;;;;;;;9.25;8.25;;;;;18.74;26.52;101185.38;5173342;27;45174;-63
2022/04/18 09:23:29;;;;;;;;;6.75;4.00;;;;;18.78;25.92;101174.56;5153235;27;45137;-63
2022/04/18 09:26:06;;;;;;;;;11.00;9.75;;;;;18.92;26.09;101187.19;5154688;27;45474;-64
2022/04/18 09:28:42;;;;;;;;;11.00;8.25;;;;;19.01;26.37;101191.72;5160706;27;45293;-65
2022/04/18 09:31:10;;;;;;;;;6.50;6.50;;;;;19.04;25.69;101183.56;5155372;27;46032;-65
2022/04/18 09:33:46;;;;;;;;;8.00;7.25;;;;;19.18;25.80;101186.28;5155739;27;46659;-65
2022/04/18 09:36:19;;;;;;;;;14.25;9.75;;;;;19.00;25.75;101154.72;5160222;27;45345;-65
2022/04/18 09:38:50;;;;;;;;;9.25;7.25;;;;;19.24;25.62;101183.56;5152657;27;45677;-63
2022/04/18 09:41:21;;;;;;;;;9.75;8.25;;;;;19.26;25.52;101181.75;5157405;27;45652;-65
2022/04/18 09:43:50;;;;;;;;;10.25;9.00;;;;;19.36;25.64;101178.09;5167355;27;46087;-65
2022/04/18 09:46:16;;;;;;;;;9.25;9.25;;;;;19.22;25.55;101137.50;5175351;27;45107;-64
2022/04/18 09:48:47;;;;;;;;;6.75;6.75;;;;;19.50;25.40;101181.66;5174980;27;45197;-65
2022/04/18 09:51:14;;;;;;;;;7.75;7.00;;;;;19.55;25.56;101178.03;5173923;27;45623;-64
2022/04/18 09:53:46;;;;;;;;;12.00;10.50;;;;;19.64;25.53;101170.75;5173077;27;45470;-65
2022/04/18 09:56:16;;;;;;;;;15.25;15.25;;;;;19.77;25.41;101173.47;5174543;27;45092;-64
2022/04/18 09:58:42;;;;;;;;;12.50;11.75;;;;;19.92;25.45;101170.66;5173375;27;45032;-64
2022/04/18 10:01:09;;;;;;;;;11.00;6.00;;;;;19.98;24.95;101159.78;5170849;27;45893;-64
2022/04/18 10:03:35;;;;;;;;;8.67;8.00;;;;;20.16;24.44;101172.34;5168954;27;45239;-65
2022/04/18 10:06:02;;;;;;;;;9.00;6.00;;;;;20.22;24.49;101174.09;5174613;27;44973;-64
2022/04/18 10:08:31;;;;;;;;;8.25;7.75;;;;;20.35;24.58;101159.53;5169915;27;45452;-67
2022/04/18 10:10:58;;;;;;;;;7.00;6.00;;;;;20.47;24.12;101168.50;5176171;27;45618;-63
2022/04/18 10:13:25;;;;;;;;;7.50;7.50;;;;;20.35;24.57;101140.53;5166432;27;45083;-66
2022/04/18 10:15:52;;;;;;;;;9.33;7.00;;;;;20.54;24.47;101157.59;5173155;27;45113;-65
2022/04/18 10:18:18;;;;;;;;;3.00;3.00;;;;;20.62;24.49;101154.78;5164689;27;45264;-64
2022/04/18 10:21:08;;;;;;;;;8.33;5.33;;;;;20.65;23.93;101162.06;5171948;27;45538;-64
2022/04/18 10:24:04;;;;;;;;;9.33;6.00;;;;;20.71;24.00;101159.28;5168253;27;44924;-65
2022/04/18 10:27:06;;;;;;;;;6.00;5.00;;;;;20.72;23.80;101151.13;5165467;27;45264;-65
2022/04/18 10:29:39;;;;;;;;;7.00;6.00;;;;;20.73;24.11;101146.59;5154507;27;44983;-63
2022/04/18 10:32:08;;;;;;;;;5.00;5.00;;;;;20.83;23.88;101150.13;5167373;27;46102;-64
2022/04/18 10:34:35;;;;;;;;;6.33;6.33;;;;;20.86;23.55;101145.56;5171694;27;45156;-65
2022/04/18 10:37:02;;;;;;;;;7.67;7.67;;;;;20.90;23.66;101152.75;5174568;27;44984;-64
2022/04/18 10:39:33;;;;;;;;;7.33;6.00;;;;;21.03;23.88;101152.63;5172670;27;45226;-64
2022/04/18 10:42:19;;;;;;;;;6.00;6.00;;;;;21.11;23.05;101153.47;5171030;27;46716;-64
2022/04/18 10:45:07;;;;;;;;;6.00;5.00;;;;;21.05;22.97;101145.38;5168380;27;44972;-64
2022/04/18 10:47:54;;;;;;;;;10.33;6.33;;;;;21.10;23.37;101140.78;5170045;27;45292;-64
2022/04/18 10:50:20;;;;;;;;;5.33;5.33;;;;;20.98;23.46;101120.97;5168118;27;45082;-64
2022/04/18 10:53:07;;;;;;;;;6.33;6.33;;;;;21.19;23.11;101132.53;5170555;27;46419;-66
2022/04/18 10:55:32;;;;;;;;;7.75;6.50;;;;;21.24;23.17;101135.22;5172428;27;45047;-63
2022/04/18 10:58:20;;;;;;;;;6.67;6.67;;;;;21.21;22.96;101133.41;5161520;27;45210;-63
2022/04/18 11:00:51;;;;;;;;;6.00;6.00;;;;;21.24;22.99;101127.06;5167525;27;45497;-65
2022/04/18 11:03:35;;;;;;;;;5.33;5.33;;;;;21.22;23.27;101128.88;5154423;27;46316;-65
2022/04/18 11:06:07;;;;;;;;;4.67;4.67;;;;;21.15;23.31;101134.41;5154309;27;45337;-63
2022/04/18 11:08:36;;;;;;;;;6.33;5.00;;;;;21.18;23.03;101130.72;5155329;27;45324;-65
2022/04/18 11:11:17;;;;;;;;;8.00;6.00;;;;;21.02;23.30;101107.34;5165245;27;45254;-65
2022/04/18 11:13:43;;;;;;;;;6.75;6.75;;;;;21.10;23.42;101128.13;5169363;27;45465;-65
2022/04/18 11:16:24;;;;;;;;;7.33;4.33;;;;;21.12;23.45;101125.38;5166876;27;45324;-65
2022/04/18 11:19:14;;;;;;;;;5.00;5.00;;;;;21.15;23.32;101119.88;5159961;27;45629;-64
2022/04/18 11:22:01;;;;;;;;;8.25;7.50;;;;;21.21;23.90;101127.97;5163934;27;45403;-65
2022/04/18 11:24:42;;;;;;;;;6.00;6.00;;;;;21.22;22.83;101105.31;5167010;27;45754;-65
2022/04/18 11:27:11;;;;;;;;;6.67;5.67;;;;;21.23;22.65;101114.38;5161835;27;45371;-65
2022/04/18 11:29:38;;;;;;;;;3.67;3.67;;;;;21.26;22.67;101119.78;5158518;27;45413;-65
2022/04/18 11:32:05;;;;;;;;;4.33;3.00;;;;;21.17;22.60;101083.63;5158770;27;45486;-63
2022/04/18 11:34:31;;;;;;;;;4.67;4.33;;;;;21.38;22.54;101108.72;5158784;27;46882;-63
2022/04/18 11:36:59;;;;;;;;;10.00;5.67;;;;;21.42;22.83;101102.34;5161777;27;45592;-64
2022/04/18 11:39:39;;;;;;;;;6.00;5.00;;;;;21.48;22.85;101109.56;5135192;27;45360;-64
2022/04/18 11:42:05;;;;;;;;;4.00;4.00;;;;;21.54;22.69;101104.94;5153056;27;45440;-64